Time;durP1;ratioP1;P1;durP2;ratioP2;P2;SDS_P1;SDS_P2;PMS_P1;PMS_P2;Temp;Humidity;BMP_temperature;BMP_pressure;BME280_temperature;BME280_humidity;BME280_pressure;Samples;Min_cycle;Max_cycle;Signal;HPM_P1;HPM_P2
2021/11/27 00:02:05;;;;;;;9.52;4.85;;;;;;;;;;4996145;28;20046;-62
2021/11/27 00:04:50;;;;;;;7.75;3.88;;;;;;;;;;4998688;28;20502;-63
2021/11/27 00:07:35;;;;;;;5.65;3.75;;;;;;;;;;4998396;28;20124;-69
2021/11/27 00:10:23;;;;;;;7.05;3.55;;;;;;;;;;5007444;28;20034;-70
2021/11/27 00:13:09;;;;;;;6.63;3.58;;;;;;;;;;5006028;28;20385;-70
2021/11/27 00:15:54;;;;;;;6.63;3.78;;;;;;;;;;4988707;28;20026;-69
2021/11/27 00:18:40;;;;;;;6.30;3.78;;;;;;;;;;4998588;28;20068;-69
2021/11/27 00:21:25;;;;;;;8.52;3.35;;;;;;;;;;4988663;28;20112;-61
2021/11/27 00:24:10;;;;;;;7.75;3.28;;;;;;;;;;5006995;28;20056;-63
2021/11/27 00:26:56;;;;;;;7.15;3.97;;;;;;;;;;5007145;28;20026;-73
2021/11/27 00:29:41;;;;;;;21.65;13.25;;;;;;;;;;4987465;28;20042;-72
2021/11/27 00:32:26;;;;;;;24.90;14.88;;;;;;;;;;4992812;28;20108;-71
2021/11/27 00:35:12;;;;;;;8.98;4.57;;;;;;;;;;5026743;28;20026;-71
2021/11/27 00:37:57;;;;;;;7.60;3.85;;;;;;;;;;5020921;28;20115;-71
2021/11/27 00:40:43;;;;;;;6.45;3.88;;;;;;;;;;5012842;28;20026;-60
2021/11/27 00:43:29;;;;;;;6.47;3.75;;;;;;;;;;5012194;28;20029;-60
2021/11/27 00:46:14;;;;;;;6.28;3.40;;;;;;;;;;5026261;28;20022;-61
2021/11/27 00:48:59;;;;;;;6.03;3.78;;;;;;;;;;5017021;28;20033;-59
2021/11/27 00:51:45;;;;;;;6.75;3.60;;;;;;;;;;5006671;28;20045;-60
2021/11/27 00:54:30;;;;;;;5.28;3.40;;;;;;;;;;5016777;28;20515;-63
2021/11/27 00:57:15;;;;;;;7.10;3.25;;;;;;;;;;4996648;28;20160;-61
2021/11/27 01:00:01;;;;;;;6.38;3.38;;;;;;;;;;5014098;28;20060;-63
2021/11/27 01:02:47;;;;;;;6.90;3.60;;;;;;;;;;5011642;28;20038;-69
2021/11/27 01:05:33;;;;;;;6.63;3.47;;;;;;;;;;4992417;28;20086;-68
2021/11/27 01:08:18;;;;;;;6.47;3.63;;;;;;;;;;5000727;28;20087;-68
2021/11/27 01:11:15;;;;;;;5.78;3.60;;;;;;;;;;5006138;28;20022;-68
2021/11/27 01:14:03;;;;;;;5.80;3.38;;;;;;;;;;5003084;28;20068;-68
2021/11/27 01:16:52;;;;;;;6.45;4.05;;;;;;;;;;5006413;28;20029;-61
2021/11/27 01:19:38;;;;;;;7.50;3.72;;;;;;;;;;5009277;28;20039;-67
2021/11/27 01:22:23;;;;;;;5.32;3.38;;;;;;;;;;5016409;28;20558;-63
2021/11/27 01:25:09;;;;;;;6.40;3.58;;;;;;;;;;5003076;28;20103;-63
2021/11/27 01:27:54;;;;;;;6.03;3.22;;;;;;;;;;5005782;28;20038;-62
2021/11/27 01:30:39;;;;;;;12.30;4.97;;;;;;;;;;5005961;28;20355;-61
2021/11/27 01:33:26;;;;;;;6.00;3.40;;;;;;;;;;5006086;28;20033;-61
2021/11/27 01:36:11;;;;;;;8.02;4.30;;;;;;;;;;5017063;28;20034;-63
2021/11/27 01:38:56;;;;;;;6.65;4.03;;;;;;;;;;5016007;28;20037;-63
2021/11/27 01:41:42;;;;;;;7.55;3.90;;;;;;;;;;5019159;28;20506;-60
2021/11/27 01:44:28;;;;;;;7.55;4.18;;;;;;;;;;5025723;28;20029;-60
2021/11/27 01:47:13;;;;;;;6.75;3.92;;;;;;;;;;5007890;28;20029;-60
2021/11/27 01:49:59;;;;;;;8.10;3.97;;;;;;;;;;5005123;28;20045;-60
2021/11/27 01:52:44;;;;;;;7.28;3.83;;;;;;;;;;5005823;28;20124;-63
2021/11/27 01:55:29;;;;;;;8.55;4.15;;;;;;;;;;5005254;28;20040;-67
2021/11/27 01:58:15;;;;;;;7.25;4.00;;;;;;;;;;4985955;28;20046;-70
2021/11/27 02:01:04;;;;;;;8.88;4.03;;;;;;;;;;4998585;28;20030;-69
2021/11/27 02:03:49;;;;;;;9.18;4.68;;;;;;;;;;5009086;28;20073;-68
2021/11/27 02:06:35;;;;;;;7.45;4.00;;;;;;;;;;5013179;28;20117;-70
2021/11/27 02:09:22;;;;;;;10.52;4.82;;;;;;;;;;5028614;28;20438;-68
2021/11/27 02:12:09;;;;;;;6.65;3.95;;;;;;;;;;5011146;28;20026;-65
2021/11/27 02:14:55;;;;;;;6.05;3.55;;;;;;;;;;5008883;28;20029;-64
2021/11/27 02:17:40;;;;;;;6.78;4.00;;;;;;;;;;5017270;28;20484;-64
2021/11/27 02:20:25;;;;;;;7.18;4.47;;;;;;;;;;5009047;28;20079;-64
2021/11/27 02:23:10;;;;;;;7.68;4.35;;;;;;;;;;5006584;28;20544;-64
2021/11/27 02:25:57;;;;;;;9.60;4.40;;;;;;;;;;4992833;28;20088;-64
2021/11/27 02:28:45;;;;;;;7.70;4.63;;;;;;;;;;5005392;28;20034;-61
2021/11/27 02:31:30;;;;;;;8.10;4.70;;;;;;;;;;5008782;28;20057;-68
2021/11/27 02:34:16;;;;;;;7.55;4.28;;;;;;;;;;4988868;28;20019;-60
2021/11/27 02:37:02;;;;;;;9.40;4.57;;;;;;;;;;4994683;28;20061;-63
2021/11/27 02:39:47;;;;;;;9.23;4.55;;;;;;;;;;4989346;28;20030;-58
2021/11/27 02:42:33;;;;;;;7.38;4.05;;;;;;;;;;4991266;28;20076;-61
2021/11/27 02:45:19;;;;;;;6.85;4.43;;;;;;;;;;5008471;28;20236;-59
2021/11/27 02:48:04;;;;;;;6.78;3.88;;;;;;;;;;5007200;28;20026;-60
2021/11/27 02:50:50;;;;;;;8.20;4.72;;;;;;;;;;4989129;28;20034;-64
2021/11/27 02:53:35;;;;;;;6.63;3.45;;;;;;;;;;5001951;28;20033;-63
2021/11/27 02:56:20;;;;;;;7.78;3.90;;;;;;;;;;5028045;28;20086;-62
2021/11/27 02:59:09;;;;;;;13.30;4.57;;;;;;;;;;4998439;28;20049;-62
2021/11/27 03:01:56;;;;;;;8.60;4.25;;;;;;;;;;4999393;28;20030;-64
2021/11/27 03:04:41;;;;;;;7.55;3.95;;;;;;;;;;5012576;28;20073;-63
2021/11/27 03:07:27;;;;;;;6.63;3.80;;;;;;;;;;5003070;28;20026;-65
2021/11/27 03:10:13;;;;;;;8.05;4.63;;;;;;;;;;5018426;28;20041;-63
2021/11/27 03:12:59;;;;;;;8.38;4.65;;;;;;;;;;5021679;28;20037;-62
2021/11/27 03:15:44;;;;;;;7.03;3.70;;;;;;;;;;5023414;28;20030;-61
2021/11/27 03:18:29;;;;;;;9.15;3.92;;;;;;;;;;5019520;28;20552;-60
2021/11/27 03:21:15;;;;;;;6.15;3.40;;;;;;;;;;4988166;28;20034;-63
2021/11/27 03:24:00;;;;;;;7.40;4.35;;;;;;;;;;4975435;28;20140;-62
2021/11/27 03:26:46;;;;;;;7.43;3.60;;;;;;;;;;5007915;28;20044;-65
2021/11/27 03:29:32;;;;;;;9.15;4.00;;;;;;;;;;4994032;28;20481;-62
2021/11/27 03:32:18;;;;;;;6.25;3.78;;;;;;;;;;5008036;28;20033;-62
2021/11/27 03:35:03;;;;;;;7.28;4.25;;;;;;;;;;5007123;28;20519;-64
2021/11/27 03:37:49;;;;;;;6.50;3.63;;;;;;;;;;5006822;28;20041;-64
2021/11/27 03:40:35;;;;;;;6.63;3.53;;;;;;;;;;5007506;28;20177;-64
2021/11/27 03:43:21;;;;;;;5.63;3.83;;;;;;;;;;5007822;28;20034;-64
2021/11/27 03:46:07;;;;;;;6.25;3.75;;;;;;;;;;5013382;28;20118;-71
2021/11/27 03:48:52;;;;;;;6.93;3.67;;;;;;;;;;5061087;22;20131;-73
2021/11/27 03:51:38;;;;;;;7.63;4.03;;;;;;;;;;5043815;28;20188;-72
2021/11/27 03:54:23;;;;;;;5.70;3.42;;;;;;;;;;5050073;28;20488;-72
2021/11/27 03:57:09;;;;;;;9.73;4.45;;;;;;;;;;5035452;28;20587;-73
2021/11/27 03:59:54;;;;;;;9.75;4.70;;;;;;;;;;5050633;28;20028;-72
2021/11/27 04:02:40;;;;;;;7.22;3.58;;;;;;;;;;5048664;28;20036;-67
2021/11/27 04:05:25;;;;;;;5.97;3.42;;;;;;;;;;5049736;28;20025;-65
2021/11/27 04:08:11;;;;;;;6.10;3.40;;;;;;;;;;5030215;28;20037;-70
2021/11/27 04:10:56;;;;;;;6.32;3.10;;;;;;;;;;5031583;28;20029;-66
2021/11/27 04:13:41;;;;;;;6.95;3.63;;;;;;;;;;5040196;28;20537;-67
2021/11/27 04:16:27;;;;;;;8.57;3.97;;;;;;;;;;5028671;28;20029;-67
2021/11/27 04:19:12;;;;;;;11.75;3.85;;;;;;;;;;5016094;28;20068;-66
2021/11/27 04:21:57;;;;;;;7.40;3.88;;;;;;;;;;5028846;28;20029;-62
2021/11/27 04:24:42;;;;;;;6.18;3.45;;;;;;;;;;5022891;28;20034;-68
2021/11/27 04:27:28;;;;;;;7.75;3.70;;;;;;;;;;5018545;28;20033;-68
2021/11/27 04:30:14;;;;;;;8.63;4.03;;;;;;;;;;5025309;28;20456;-67
2021/11/27 04:33:00;;;;;;;6.82;3.53;;;;;;;;;;5028669;28;20086;-68
2021/11/27 04:35:46;;;;;;;7.05;2.88;;;;;;;;;;5004920;28;20116;-67
2021/11/27 04:38:31;;;;;;;5.95;3.47;;;;;;;;;;5037269;28;20098;-68
2021/11/27 04:41:16;;;;;;;4.50;3.17;;;;;;;;;;5009017;28;20424;-66
2021/11/27 04:44:02;;;;;;;6.70;3.42;;;;;;;;;;5025428;28;20480;-70
2021/11/27 04:46:47;;;;;;;4.60;2.70;;;;;;;;;;5029159;28;20465;-70
2021/11/27 04:49:32;;;;;;;4.68;2.58;;;;;;;;;;5028219;28;20168;-69
2021/11/27 04:52:18;;;;;;;4.35;2.72;;;;;;;;;;5029139;28;20082;-69
2021/11/27 04:55:06;;;;;;;3.88;2.30;;;;;;;;;;5028720;28;20033;-70
2021/11/27 04:57:52;;;;;;;3.23;2.03;;;;;;;;;;5028438;28;20144;-72
2021/11/27 05:00:40;;;;;;;4.00;2.00;;;;;;;;;;5015616;28;20395;-64
2021/11/27 05:03:25;;;;;;;6.03;2.40;;;;;;;;;;5028068;28;20053;-66
2021/11/27 05:06:10;;;;;;;4.55;2.10;;;;;;;;;;5028914;28;20025;-69
2021/11/27 05:08:55;;;;;;;5.88;2.17;;;;;;;;;;5028061;28;20476;-68
2021/11/27 05:11:41;;;;;;;2.70;1.75;;;;;;;;;;5029023;28;20041;-66
2021/11/27 05:14:26;;;;;;;3.90;2.20;;;;;;;;;;5019623;28;20445;-67
2021/11/27 05:17:11;;;;;;;2.83;1.80;;;;;;;;;;5028895;28;20072;-66
2021/11/27 05:19:56;;;;;;;2.95;1.65;;;;;;;;;;5028022;28;20358;-64
2021/11/27 05:22:42;;;;;;;3.83;2.08;;;;;;;;;;5028846;28;20108;-63
2021/11/27 05:25:27;;;;;;;4.00;2.03;;;;;;;;;;5015104;28;20073;-63
2021/11/27 05:28:12;;;;;;;2.70;1.83;;;;;;;;;;4996815;28;20068;-63
2021/11/27 05:30:57;;;;;;;3.28;1.65;;;;;;;;;;5041222;28;20496;-62
2021/11/27 05:36:32;;;;;;;4.50;1.90;;;;;;;;;;5028164;28;20029;-62
2021/11/27 05:39:18;;;;;;;2.50;1.45;;;;;;;;;;5009625;28;20034;-71
2021/11/27 05:42:03;;;;;;;2.67;1.60;;;;;;;;;;5028754;28;20029;-73
2021/11/27 05:44:49;;;;;;;2.80;1.50;;;;;;;;;;5014126;28;20029;-72
2021/11/27 05:47:35;;;;;;;2.80;1.60;;;;;;;;;;5016722;28;20083;-72
2021/11/27 05:50:20;;;;;;;2.53;1.40;;;;;;;;;;5028392;28;20112;-72
2021/11/27 05:53:05;;;;;;;5.22;1.75;;;;;;;;;;5014987;28;20022;-67
2021/11/27 05:55:51;;;;;;;2.72;1.50;;;;;;;;;;5027854;28;20083;-63
2021/11/27 05:58:37;;;;;;;3.10;1.50;;;;;;;;;;5027955;28;20121;-64
2021/11/27 06:01:23;;;;;;;2.42;1.45;;;;;;;;;;5027428;28;20033;-64
2021/11/27 06:04:08;;;;;;;1.73;1.00;;;;;;;;;;5028279;28;20056;-63
2021/11/27 06:06:53;;;;;;;2.42;1.55;;;;;;;;;;5027494;28;20040;-63
2021/11/27 06:09:38;;;;;;;3.70;1.45;;;;;;;;;;5028198;28;20535;-64
2021/11/27 06:12:24;;;;;;;3.50;1.60;;;;;;;;;;5026470;28;20121;-62
2021/11/27 06:15:09;;;;;;;2.05;1.52;;;;;;;;;;5005397;28;20018;-68
2021/11/27 06:17:54;;;;;;;1.90;1.23;;;;;;;;;;5022851;28;20046;-69
2021/11/27 06:20:40;;;;;;;2.55;1.75;;;;;;;;;;5013648;28;20045;-71
2021/11/27 06:23:25;;;;;;;2.38;1.42;;;;;;;;;;5023435;28;20033;-70
2021/11/27 06:26:10;;;;;;;2.67;1.63;;;;;;;;;;5025163;28;20022;-68
2021/11/27 06:28:56;;;;;;;2.95;1.67;;;;;;;;;;5025196;28;20105;-69
2021/11/27 06:31:41;;;;;;;2.25;1.63;;;;;;;;;;5018181;28;20108;-62
2021/11/27 06:34:26;;;;;;;2.60;1.50;;;;;;;;;;5022452;28;20480;-64
2021/11/27 06:37:11;;;;;;;5.72;1.63;;;;;;;;;;5026566;28;20030;-62
2021/11/27 06:39:59;;;;;;;4.78;1.92;;;;;;;;;;5026253;28;20048;-63
2021/11/27 06:42:44;;;;;;;4.93;1.58;;;;;;;;;;5026626;28;20038;-65
2021/11/27 06:45:30;;;;;;;2.25;1.45;;;;;;;;;;5025058;28;20385;-64
2021/11/27 06:48:16;;;;;;;3.50;1.90;;;;;;;;;;5023331;28;20136;-61
2021/11/27 06:51:01;;;;;;;2.42;1.40;;;;;;;;;;5001382;28;20147;-63
2021/11/27 06:53:46;;;;;;;1.95;1.20;;;;;;;;;;5029648;28;20539;-68
2021/11/27 06:56:32;;;;;;;1.83;1.27;;;;;;;;;;5012214;28;20026;-68
2021/11/27 06:59:17;;;;;;;16.27;10.73;;;;;;;;;;5029576;28;20726;-69
2021/11/27 07:02:02;;;;;;;24.77;13.88;;;;;;;;;;5008806;28;20104;-70
2021/11/27 07:04:47;;;;;;;4.85;2.78;;;;;;;;;;5012217;28;20025;-69
2021/11/27 07:07:34;;;;;;;3.97;1.92;;;;;;;;;;5015102;28;20115;-69
2021/11/27 07:10:19;;;;;;;3.03;1.70;;;;;;;;;;5028694;28;20052;-63
2021/11/27 07:13:05;;;;;;;3.42;2.17;;;;;;;;;;5028890;28;20065;-63
2021/11/27 07:15:50;;;;;;;4.95;2.00;;;;;;;;;;5044338;28;20517;-64
2021/11/27 07:18:35;;;;;;;3.80;1.70;;;;;;;;;;5029472;28;20409;-67
2021/11/27 07:21:20;;;;;;;3.78;1.38;;;;;;;;;;5025931;28;20038;-65
2021/11/27 07:24:06;;;;;;;2.33;1.52;;;;;;;;;;5029517;28;20032;-63
2021/11/27 07:26:51;;;;;;;3.67;1.90;;;;;;;;;;5031068;28;20033;-70
2021/11/27 07:29:39;;;;;;;2.90;1.63;;;;;;;;;;5027569;28;20502;-64
2021/11/27 07:32:24;;;;;;;14.82;9.02;;;;;;;;;;5030590;28;20030;-65
2021/11/27 07:35:10;;;;;;;48.00;32.13;;;;;;;;;;5029898;28;20044;-66
2021/11/27 07:37:55;;;;;;;9.00;4.47;;;;;;;;;;5016865;28;20484;-64
2021/11/27 07:40:40;;;;;;;3.75;2.10;;;;;;;;;;5016179;28;20082;-66
2021/11/27 07:43:26;;;;;;;2.75;2.08;;;;;;;;;;5010762;28;20034;-64
2021/11/27 07:46:12;;;;;;;2.60;1.58;;;;;;;;;;5028074;28;20022;-63
2021/11/27 07:48:57;;;;;;;3.10;1.98;;;;;;;;;;5029685;28;20412;-64
2021/11/27 07:51:42;;;;;;;4.70;2.05;;;;;;;;;;5030034;28;20029;-64
2021/11/27 07:54:28;;;;;;;3.50;1.90;;;;;;;;;;5020286;28;20037;-63
2021/11/27 07:57:13;;;;;;;4.90;2.38;;;;;;;;;;5009467;28;20397;-66
2021/11/27 07:59:58;;;;;;;4.70;2.33;;;;;;;;;;5012793;28;20035;-64
2021/11/27 08:02:44;;;;;;;5.00;2.28;;;;;;;;;;5029972;28;20091;-65
2021/11/27 08:05:29;;;;;;;3.45;2.00;;;;;;;;;;5007239;28;20454;-64
2021/11/27 08:08:15;;;;;;;3.28;1.98;;;;;;;;;;5030245;28;20280;-63
2021/11/27 08:11:01;;;;;;;3.50;2.05;;;;;;;;;;5029521;28;20022;-65
2021/11/27 08:13:48;;;;;;;3.08;1.65;;;;;;;;;;5029545;28;20396;-63
2021/11/27 08:16:33;;;;;;;2.83;2.20;;;;;;;;;;5042283;28;20061;-64
2021/11/27 08:19:18;;;;;;;2.65;1.70;;;;;;;;;;5015023;28;20042;-63
2021/11/27 08:22:03;;;;;;;3.08;1.88;;;;;;;;;;5022795;28;20025;-66
2021/11/27 08:24:50;;;;;;;3.30;1.90;;;;;;;;;;5022210;28;20040;-66
2021/11/27 08:27:35;;;;;;;1.77;1.42;;;;;;;;;;5026128;28;20033;-64
2021/11/27 08:30:20;;;;;;;3.63;1.80;;;;;;;;;;5029353;28;20026;-64
2021/11/27 08:33:06;;;;;;;1.90;1.65;;;;;;;;;;5029073;28;20302;-62
2021/11/27 08:35:51;;;;;;;136.75;88.50;;;;;;;;;;5029698;28;20056;-63
2021/11/27 08:38:36;;;;;;;11.20;6.10;;;;;;;;;;5009610;28;20037;-66
2021/11/27 08:41:22;;;;;;;3.72;1.83;;;;;;;;;;5023533;28;20025;-63
2021/11/27 08:44:07;;;;;;;3.00;1.75;;;;;;;;;;5029288;28;20491;-63
2021/11/27 08:46:53;;;;;;;2.83;1.75;;;;;;;;;;5012901;28;20030;-66
2021/11/27 08:49:38;;;;;;;3.42;1.73;;;;;;;;;;5028854;28;20614;-64
2021/11/27 08:52:24;;;;;;;2.22;1.38;;;;;;;;;;5026420;28;20129;-63
2021/11/27 08:55:09;;;;;;;3.20;1.63;;;;;;;;;;5029211;28;20075;-63
2021/11/27 08:57:54;;;;;;;2.63;1.25;;;;;;;;;;5014639;28;20104;-64
2021/11/27 09:00:40;;;;;;;4.00;1.63;;;;;;;;;;5029263;28;20022;-68
2021/11/27 09:03:25;;;;;;;3.00;1.45;;;;;;;;;;5028099;28;20035;-67
2021/11/27 09:06:11;;;;;;;2.97;1.42;;;;;;;;;;5028976;28;20018;-69
2021/11/27 09:08:56;;;;;;;4.43;1.50;;;;;;;;;;5027499;28;20029;-69
2021/11/27 09:11:42;;;;;;;3.70;1.60;;;;;;;;;;5029146;28;20478;-67
2021/11/27 09:14:27;;;;;;;2.50;1.75;;;;;;;;;;5027854;28;20025;-68
2021/11/27 09:17:13;;;;;;;3.60;1.63;;;;;;;;;;5028806;28;20217;-71
2021/11/27 09:19:58;;;;;;;4.00;1.60;;;;;;;;;;5027526;28;20120;-63
2021/11/27 09:22:43;;;;;;;2.60;1.60;;;;;;;;;;5003090;28;20022;-63
2021/11/27 09:25:29;;;;;;;3.10;1.83;;;;;;;;;;5007861;28;20033;-64
2021/11/27 09:28:14;;;;;;;3.65;1.55;;;;;;;;;;5028019;28;20069;-65
2021/11/27 09:31:00;;;;;;;6.95;1.65;;;;;;;;;;5028638;28;20067;-65
2021/11/27 09:33:45;;;;;;;2.72;1.23;;;;;;;;;;5027874;28;20559;-68
2021/11/27 09:36:31;;;;;;;2.83;1.33;;;;;;;;;;5028681;28;20386;-71
2021/11/27 09:39:16;;;;;;;5.10;2.30;;;;;;;;;;5027448;28;20461;-65
2021/11/27 09:42:02;;;;;;;2.80;1.65;;;;;;;;;;5014943;28;20029;-64
2021/11/27 09:44:48;;;;;;;2.17;1.13;;;;;;;;;;5027231;28;20643;-64
2021/11/27 09:47:33;;;;;;;2.72;1.30;;;;;;;;;;5041859;28;20033;-65
2021/11/27 09:50:20;;;;;;;4.20;1.63;;;;;;;;;;5027700;28;20043;-65
2021/11/27 09:53:06;;;;;;;1.42;1.02;;;;;;;;;;5015235;28;20021;-63
2021/11/27 09:55:51;;;;;;;2.15;1.00;;;;;;;;;;5027670;28;20099;-65
2021/11/27 09:58:37;;;;;;;4.25;1.13;;;;;;;;;;5028302;28;20119;-66
2021/11/27 10:01:27;;;;;;;1.55;0.98;;;;;;;;;;5027035;28;20076;-63
2021/11/27 10:04:12;;;;;;;;;;;;;;;;;;5028679;28;20025;-66
2021/11/27 10:06:58;;;;;;;2.47;1.27;;;;;;;;;;5008690;28;19910;-64
2021/11/27 10:09:48;;;;;;;3.47;1.13;;;;;;;;;;5012001;28;20059;-65
2021/11/27 10:12:33;;;;;;;3.63;2.47;;;;;;;;;;5014793;28;20022;-62
2021/11/27 10:15:18;;;;;;;2.70;1.23;;;;;;;;;;5025468;28;20125;-66
2021/11/27 10:18:14;;;;;;;3.15;1.55;;;;;;;;;;5014188;28;20036;-63
2021/11/27 10:21:32;;;;;;;3.28;1.42;;;;;;;;;;5028378;28;20037;-63
2021/11/27 10:24:25;;;;;;;4.88;1.55;;;;;;;;;;4996009;28;20053;-64
2021/11/27 10:27:21;;;;;;;5.18;1.40;;;;;;;;;;5027217;28;20052;-63
2021/11/27 10:30:09;;;;;;;3.35;1.58;;;;;;;;;;5031966;28;20026;-64
2021/11/27 10:32:55;;;;;;;2.95;1.42;;;;;;;;;;5044889;28;20108;-62
2021/11/27 10:35:51;;;;;;;7.90;2.60;;;;;;;;;;5030947;28;20033;-65
2021/11/27 10:38:38;;;;;;;2.67;1.20;;;;;;;;;;5025938;28;20106;-62
2021/11/27 10:41:24;;;;;;;3.20;1.60;;;;;;;;;;5030887;28;20052;-62
2021/11/27 10:44:10;;;;;;;4.05;1.40;;;;;;;;;;5031500;28;20041;-64
2021/11/27 10:47:12;;;;;;;4.13;1.40;;;;;;;;;;5030228;28;20485;-63
2021/11/27 10:50:03;;;;;;;5.65;2.20;;;;;;;;;;5031562;28;20389;-63
2021/11/27 10:52:52;;;;;;;3.00;1.30;;;;;;;;;;5030599;28;20125;-64
2021/11/27 10:55:39;;;;;;;3.90;1.30;;;;;;;;;;5031319;28;20059;-63
2021/11/27 10:58:24;;;;;;;4.53;1.48;;;;;;;;;;5016583;28;20038;-64
2021/11/27 11:01:10;;;;;;;4.57;1.35;;;;;;;;;;5045254;28;20033;-67
2021/11/27 11:03:55;;;;;;;2.50;1.40;;;;;;;;;;5030429;28;20026;-64
2021/11/27 11:06:40;;;;;;;2.88;1.17;;;;;;;;;;5031141;28;20033;-63
2021/11/27 11:09:25;;;;;;;1.88;1.10;;;;;;;;;;5025074;28;20465;-66
2021/11/27 11:12:11;;;;;;;2.95;1.10;;;;;;;;;;5012010;28;20044;-66
2021/11/27 11:15:09;;;;;;;3.45;1.42;;;;;;;;;;5030934;28;20108;-63
2021/11/27 11:18:15;;;;;;;3.10;1.40;;;;;;;;;;5030068;28;20037;-62
2021/11/27 11:21:02;;;;;;;3.60;1.45;;;;;;;;;;5030782;28;20032;-63
2021/11/27 11:23:49;;;;;;;3.08;1.15;;;;;;;;;;5029445;28;20480;-62
2021/11/27 11:26:35;;;;;;;1.73;1.33;;;;;;;;;;5020087;28;20063;-63
2021/11/27 11:29:20;;;;;;;3.03;1.30;;;;;;;;;;5023475;28;20036;-67
2021/11/27 11:32:15;;;;;;;5.13;1.30;;;;;;;;;;5010691;28;20465;-68
2021/11/27 11:35:01;;;;;;;2.42;1.58;;;;;;;;;;5013676;28;20026;-67
2021/11/27 11:37:47;;;;;;;2.92;1.40;;;;;;;;;;5030553;28;20416;-67
2021/11/27 11:40:32;;;;;;;3.95;1.50;;;;;;;;;;5024093;28;20026;-67
2021/11/27 11:43:18;;;;;;;2.80;1.70;;;;;;;;;;5010694;28;20481;-67
2021/11/27 11:46:04;;;;;;;2.90;1.80;;;;;;;;;;5020809;28;20090;-70
2021/11/27 11:48:50;;;;;;;3.60;2.40;;;;;;;;;;5028506;28;20049;-69
2021/11/27 11:51:35;;;;;;;4.28;3.97;;;;;;;;;;5030353;28;20021;-75
2021/11/27 11:54:24;;;;;;;58.95;38.53;;;;;;;;;;5029518;28;20069;-75
2021/11/27 11:57:10;;;;;;;7.90;2.47;;;;;;;;;;5030189;28;20025;-73
2021/11/27 11:59:56;;;;;;;5.38;1.83;;;;;;;;;;5004912;28;20048;-70
2021/11/27 12:02:45;;;;;;;2.65;1.17;;;;;;;;;;5030196;28;20358;-63
2021/11/27 12:05:33;;;;;;;2.42;1.60;;;;;;;;;;5028989;28;20033;-65
2021/11/27 12:08:21;;;;;;;3.63;1.70;;;;;;;;;;5030206;28;20071;-65
2021/11/27 12:11:06;;;;;;;4.70;1.48;;;;;;;;;;5028605;28;20484;-64
2021/11/27 12:13:51;;;;;;;4.13;1.52;;;;;;;;;;5009795;28;20037;-67
2021/11/27 12:16:56;;;;;;;2.60;1.30;;;;;;;;;;5027195;28;20036;-65
2021/11/27 12:19:46;;;;;;;2.47;1.30;;;;;;;;;;5029053;28;20045;-64
2021/11/27 12:22:36;;;;;;;3.42;1.35;;;;;;;;;;5028123;28;20069;-64
2021/11/27 12:25:23;;;;;;;2.97;1.23;;;;;;;;;;5033339;28;20029;-65
2021/11/27 12:28:08;;;;;;;2.33;1.58;;;;;;;;;;5015924;28;20036;-62
2021/11/27 12:30:56;;;;;;;4.45;1.92;;;;;;;;;;5028683;28;20033;-64
2021/11/27 12:33:51;;;;;;;3.28;1.30;;;;;;;;;;5021621;28;20110;-64
2021/11/27 12:36:40;;;;;;;6.15;1.88;;;;;;;;;;5033894;28;20397;-62
2021/11/27 12:39:25;;;;;;;3.22;1.52;;;;;;;;;;5029410;28;20033;-66
2021/11/27 12:42:18;;;;;;;2.75;1.30;;;;;;;;;;5028647;28;20041;-70
2021/11/27 12:45:04;;;;;;;6.97;3.38;;;;;;;;;;5035912;28;20408;-71
2021/11/27 12:47:49;;;;;;;28.33;17.73;;;;;;;;;;5039190;28;20507;-73
2021/11/27 12:50:35;;;;;;;4.00;2.03;;;;;;;;;;5028338;28;20033;-72
2021/11/27 12:53:20;;;;;;;3.05;1.70;;;;;;;;;;5021689;28;20030;-69
2021/11/27 12:56:05;;;;;;;1.95;1.20;;;;;;;;;;4999467;28;20425;-70
2021/11/27 12:58:50;;;;;;;2.55;1.17;;;;;;;;;;5027750;28;20045;-65
2021/11/27 13:01:36;;;;;;;2.72;1.05;;;;;;;;;;5025947;28;20029;-65
2021/11/27 13:04:22;;;;;;;2.63;1.63;;;;;;;;;;5028085;28;20472;-65
2021/11/27 13:07:07;;;;;;;1.65;1.25;;;;;;;;;;5010116;28;20041;-67
2021/11/27 13:09:59;;;;;;;1.45;1.10;;;;;;;;;;4999823;28;20468;-67
2021/11/27 13:12:56;;;;;;;2.22;1.25;;;;;;;;;;5027130;28;20451;-66
2021/11/27 13:15:42;;;;;;;1.13;1.02;;;;;;;;;;5008045;28;20029;-64
2021/11/27 13:18:28;;;;;;;1.95;1.23;;;;;;;;;;5020319;28;20029;-66
2021/11/27 13:21:13;;;;;;;1.48;1.38;;;;;;;;;;5028003;28;20377;-63
2021/11/27 13:23:59;;;;;;;28.33;19.00;;;;;;;;;;5009518;28;20033;-66
2021/11/27 13:26:44;;;;;;;4.38;1.23;;;;;;;;;;5021592;28;20037;-65
2021/11/27 13:29:29;;;;;;;0.80;0.65;;;;;;;;;;5018822;28;20082;-64
2021/11/27 13:32:14;;;;;;;0.47;0.47;;;;;;;;;;4994196;28;20581;-67
2021/11/27 13:35:00;;;;;;;0.50;0.50;;;;;;;;;;5008033;28;20030;-66
2021/11/27 13:37:53;;;;;;;0.55;0.55;;;;;;;;;;5021671;28;20053;-64
2021/11/27 13:40:39;;;;;;;0.50;0.50;;;;;;;;;;5007729;28;20517;-65
2021/11/27 13:43:24;;;;;;;0.60;0.50;;;;;;;;;;5025456;28;20022;-62
2021/11/27 13:46:09;;;;;;;2.33;0.52;;;;;;;;;;5027364;28;20137;-63
2021/11/27 13:49:02;;;;;;;0.52;0.52;;;;;;;;;;4987533;28;1119705;-64
2021/11/27 13:51:47;;;;;;;1.70;0.60;;;;;;;;;;5028484;28;20128;-66
2021/11/27 13:54:34;;;;;;;0.60;0.60;;;;;;;;;;5040634;28;20468;-62
2021/11/27 13:57:19;;;;;;;0.77;0.60;;;;;;;;;;5017624;28;20119;-62
2021/11/27 14:00:31;;;;;;;0.85;0.70;;;;;;;;;;5031246;28;20045;-62
2021/11/27 14:03:19;;;;;;;0.80;0.60;;;;;;;;;;5029524;28;20089;-62
2021/11/27 14:06:10;;;;;;;0.52;0.50;;;;;;;;;;5018079;28;20033;-63
2021/11/27 14:09:03;;;;;;;0.68;0.50;;;;;;;;;;5031690;28;20025;-63
2021/11/27 14:11:48;;;;;;;2.30;0.70;;;;;;;;;;5012506;28;20132;-65
2021/11/27 14:14:51;;;;;;;1.02;0.60;;;;;;;;;;5015552;28;20030;-68
2021/11/27 14:17:37;;;;;;;1.08;0.60;;;;;;;;;;5031879;28;20025;-67
2021/11/27 14:20:22;;;;;;;0.85;0.70;;;;;;;;;;5031100;28;20025;-67
2021/11/27 14:23:09;;;;;;;2.97;1.55;;;;;;;;;;5031524;28;20067;-66
2021/11/27 14:26:05;;;;;;;1.40;0.70;;;;;;;;;;5021503;28;20033;-68
2021/11/27 14:28:52;;;;;;;4.53;2.33;;;;;;;;;;5025075;28;20022;-63
2021/11/27 14:31:38;;;;;;;3.97;1.33;;;;;;;;;;5027398;28;20362;-63
2021/11/27 14:34:33;;;;;;;2.10;0.77;;;;;;;;;;5017765;28;20036;-63
2021/11/27 14:37:18;;;;;;;1.90;1.42;;;;;;;;;;5017576;28;20041;-66
2021/11/27 14:40:04;;;;;;;2.95;1.48;;;;;;;;;;5045659;28;20112;-65
2021/11/27 14:42:49;;;;;;;1.08;0.90;;;;;;;;;;5025744;28;20120;-63
2021/11/27 14:45:47;;;;;;;2.08;0.93;;;;;;;;;;5013486;28;20037;-65
2021/11/27 14:48:36;;;;;;;1.85;0.82;;;;;;;;;;5045049;28;20362;-64
2021/11/27 14:51:21;;;;;;;3.88;1.25;;;;;;;;;;5029915;28;20025;-63
2021/11/27 14:54:12;;;;;;;3.05;1.30;;;;;;;;;;5031320;28;20039;-64
2021/11/27 14:56:59;;;;;;;1.83;1.10;;;;;;;;;;5030669;28;20021;-65
2021/11/27 14:59:47;;;;;;;2.85;1.50;;;;;;;;;;5025057;28;20333;-62
2021/11/27 15:02:33;;;;;;;2.20;1.20;;;;;;;;;;5023679;28;20431;-63
2021/11/27 15:05:19;;;;;;;3.53;1.25;;;;;;;;;;5030912;28;20041;-69
2021/11/27 15:08:05;;;;;;;2.30;1.30;;;;;;;;;;5027872;28;20034;-65
2021/11/27 15:10:51;;;;;;;3.45;1.25;;;;;;;;;;5022823;28;20037;-65
2021/11/27 15:13:37;;;;;;;1.77;1.40;;;;;;;;;;5029915;28;20026;-65
2021/11/27 15:16:22;;;;;;;2.75;1.58;;;;;;;;;;5045125;28;20500;-66
2021/11/27 15:19:07;;;;;;;7.32;2.80;;;;;;;;;;5044402;28;20037;-65
2021/11/27 15:21:53;;;;;;;26.67;17.42;;;;;;;;;;5029682;28;20075;-64
2021/11/27 15:24:39;;;;;;;5.60;2.55;;;;;;;;;;5024626;28;20081;-63
2021/11/27 15:27:28;;;;;;;2.03;1.30;;;;;;;;;;5001052;28;20314;-65
2021/11/27 15:30:13;;;;;;;2.33;1.40;;;;;;;;;;5030846;28;20065;-67
2021/11/27 15:32:59;;;;;;;4.32;1.40;;;;;;;;;;5015626;28;20030;-65
2021/11/27 15:35:44;;;;;;;3.25;1.40;;;;;;;;;;5038105;28;20025;-66
2021/11/27 15:38:29;;;;;;;3.17;1.13;;;;;;;;;;5006319;28;20041;-66
2021/11/27 15:41:17;;;;;;;3.17;1.50;;;;;;;;;;5030253;28;20109;-66
2021/11/27 15:44:03;;;;;;;5.45;1.90;;;;;;;;;;5029759;28;20087;-66
2021/11/27 15:46:48;;;;;;;4.63;2.33;;;;;;;;;;5030458;28;20037;-61
2021/11/27 15:49:33;;;;;;;7.43;2.17;;;;;;;;;;5029104;28;20046;-61
2021/11/27 15:52:19;;;;;;;5.72;1.75;;;;;;;;;;5030621;28;20090;-61
2021/11/27 15:55:04;;;;;;;4.63;1.65;;;;;;;;;;5029749;28;20453;-65
2021/11/27 15:57:49;;;;;;;8.32;1.60;;;;;;;;;;5015113;28;20114;-61
2021/11/27 16:00:34;;;;;;;6.18;1.92;;;;;;;;;;5029606;28;20028;-68
2021/11/27 16:03:20;;;;;;;3.35;1.98;;;;;;;;;;5029560;28;20494;-71
2021/11/27 16:06:07;;;;;;;4.95;2.30;;;;;;;;;;5023443;28;20068;-69
2021/11/27 16:08:52;;;;;;;7.75;1.98;;;;;;;;;;5021159;28;20104;-66
2021/11/27 16:11:38;;;;;;;5.38;2.03;;;;;;;;;;5030139;28;20024;-67
2021/11/27 16:14:23;;;;;;;5.80;1.90;;;;;;;;;;5028762;28;20469;-67
2021/11/27 16:17:08;;;;;;;4.43;1.88;;;;;;;;;;5029932;28;20034;-67
2021/11/27 16:19:56;;;;;;;5.78;2.42;;;;;;;;;;5027772;28;20061;-69
2021/11/27 16:22:41;;;;;;;7.82;2.75;;;;;;;;;;5029628;28;20114;-64
2021/11/27 16:25:28;;;;;;;3.28;2.20;;;;;;;;;;5014407;28;20057;-67
2021/11/27 16:28:13;;;;;;;27.90;17.80;;;;;;;;;;5027870;28;20423;-63
2021/11/27 16:30:58;;;;;;;19.13;10.35;;;;;;;;;;5008707;28;20041;-62
2021/11/27 16:33:44;;;;;;;6.85;2.80;;;;;;;;;;5029491;28;20092;-65
2021/11/27 16:36:29;;;;;;;7.22;3.40;;;;;;;;;;5028557;28;20041;-65
2021/11/27 16:39:15;;;;;;;8.38;3.55;;;;;;;;;;5029232;28;20431;-62
2021/11/27 16:42:00;;;;;;;4.72;2.90;;;;;;;;;;5027689;28;20423;-66